createdAt,value
2023-04-17T00:01:23.952Z,2.90
2023-04-17T00:04:27.205Z,3.13
2023-04-17T00:07:30.064Z,3.08
2023-04-17T00:10:32.818Z,3.50
2023-04-17T00:13:35.661Z,4.32
2023-04-17T00:16:38.662Z,3.10
2023-04-17T00:19:41.576Z,3.03
2023-04-17T00:22:44.525Z,3.35
2023-04-17T00:25:47.267Z,4.40
2023-04-17T00:28:50.827Z,3.60
2023-04-17T00:31:53.881Z,3.50
2023-04-17T00:34:56.625Z,3.00
2023-04-17T00:37:59.491Z,4.75
2023-04-17T00:41:03.004Z,4.20
2023-04-17T00:44:05.744Z,5.25
2023-04-17T00:47:12.021Z,4.72
2023-04-17T00:50:15.167Z,4.72
2023-04-17T00:53:18.283Z,4.22
2023-04-17T00:56:21.874Z,4.57
2023-04-17T00:59:25.716Z,4.80
2023-04-17T01:02:29.402Z,3.38
2023-04-17T01:05:32.358Z,4.18
2023-04-17T01:08:44.748Z,6.20
2023-04-17T01:11:47.614Z,5.10
2023-04-17T01:14:54.307Z,5.25
2023-04-17T01:17:57.538Z,5.80
2023-04-17T01:21:00.245Z,5.28
2023-04-17T01:24:03.734Z,5.05
2023-04-17T01:27:07.430Z,5.57
2023-04-17T01:30:12.063Z,6.55
2023-04-17T01:33:24.569Z,6.32
2023-04-17T01:36:28.012Z,5.05
2023-04-17T01:39:30.868Z,5.18
2023-04-17T01:42:34.789Z,4.35
2023-04-17T01:45:37.572Z,4.70
2023-04-17T01:48:40.653Z,6.18
2023-04-17T01:51:43.539Z,4.78
2023-04-17T01:54:46.374Z,4.65
2023-04-17T01:57:49.842Z,5.00
2023-04-17T02:00:52.690Z,3.95
2023-04-17T02:03:55.931Z,4.75
2023-04-17T02:06:58.678Z,3.97
2023-04-17T02:10:01.620Z,4.60
2023-04-17T02:13:04.469Z,4.50
2023-04-17T02:16:08.003Z,4.40
2023-04-17T02:19:11.012Z,5.38
2023-04-17T02:22:13.944Z,5.25
2023-04-17T02:25:16.882Z,4.10
2023-04-17T02:28:19.796Z,4.18
2023-04-17T02:31:22.448Z,5.03
2023-04-17T02:34:25.168Z,4.35
2023-04-17T02:37:29.840Z,5.82
2023-04-17T02:40:32.900Z,6.28
2023-04-17T02:43:37.761Z,16.35
2023-04-17T02:46:40.444Z,6.45
2023-04-17T02:49:45.070Z,4.30
2023-04-17T02:52:47.736Z,3.97
2023-04-17T02:55:50.517Z,4.32
2023-04-17T02:58:56.431Z,4.38
2023-04-17T03:01:59.991Z,4.07
2023-04-17T03:05:04.480Z,4.40
2023-04-17T03:08:07.546Z,3.78
2023-04-17T03:11:18.730Z,4.07
2023-04-17T03:14:21.492Z,3.72
2023-04-17T03:17:24.320Z,4.50
2023-04-17T03:20:27.557Z,4.30
2023-04-17T03:23:31.053Z,4.10
2023-04-17T03:26:33.739Z,4.25
2023-04-17T03:29:42.116Z,3.83
2023-04-17T03:32:45.463Z,4.03
2023-04-17T03:35:48.165Z,3.22
2023-04-17T03:38:51.656Z,3.97
2023-04-17T03:41:54.527Z,3.90
2023-04-17T03:44:57.323Z,4.25
2023-04-17T03:48:01.678Z,4.15
2023-04-17T03:51:07.315Z,3.83
2023-04-17T03:54:11.600Z,4.00
2023-04-17T03:57:16.455Z,4.05
2023-04-17T04:00:20.543Z,4.25
2023-04-17T04:03:27.671Z,4.47
2023-04-17T04:06:31.177Z,4.70
2023-04-17T04:09:35.299Z,4.97
2023-04-17T04:12:39.961Z,4.18
2023-04-17T04:15:42.727Z,4.60
2023-04-17T04:18:46.252Z,4.60
2023-04-17T04:21:51.286Z,4.60
2023-04-17T04:24:54.452Z,4.30
2023-04-17T04:28:04.091Z,4.72
2023-04-17T04:31:07.187Z,4.70
2023-04-17T04:34:17.345Z,4.07
2023-04-17T04:37:22.299Z,4.90
2023-04-17T04:40:27.215Z,5.22
2023-04-17T04:43:30.321Z,5.82
2023-04-17T04:46:33.489Z,5.35
2023-04-17T04:49:37.355Z,5.28
2023-04-17T04:52:40.210Z,5.88
2023-04-17T04:55:54.809Z,5.97
2023-04-17T04:58:59.189Z,5.55
2023-04-17T05:02:02.868Z,5.38
2023-04-17T05:05:07.960Z,5.75
2023-04-17T05:08:10.756Z,5.88
2023-04-17T05:11:15.206Z,5.90
2023-04-17T05:14:18.645Z,6.00
2023-04-17T05:17:21.513Z,5.97
2023-04-17T05:20:26.882Z,5.68
2023-04-17T05:23:33.064Z,5.28
2023-04-17T05:26:35.909Z,5.53
2023-04-17T05:29:40.141Z,6.35
2023-04-17T05:32:43.850Z,5.80
2023-04-17T05:36:06.903Z,5.47
2023-04-17T05:39:16.852Z,5.90
2023-04-17T05:42:19.757Z,5.00
2023-04-17T05:45:25.398Z,5.55
2023-04-17T05:48:29.277Z,5.35
2023-04-17T05:51:32.373Z,4.53
2023-04-17T05:54:35.340Z,4.85
2023-04-17T05:57:38.471Z,5.05
2023-04-17T06:00:42.650Z,5.72
2023-04-17T06:03:49.739Z,4.85
2023-04-17T06:06:57.646Z,5.30
2023-04-17T06:10:01.049Z,4.90
2023-04-17T06:13:04.023Z,5.38
2023-04-17T06:16:09.000Z,4.68
2023-04-17T06:19:11.992Z,4.78
2023-04-17T06:22:15.083Z,4.47
2023-04-17T06:25:18.777Z,5.30
2023-04-17T06:28:21.992Z,4.85
2023-04-17T06:31:28.135Z,4.78
2023-04-17T06:34:30.950Z,5.03
2023-04-17T06:37:33.913Z,4.97
2023-04-17T06:40:36.908Z,4.85
2023-04-17T06:43:42.276Z,4.78
2023-04-17T06:46:55.305Z,5.07
2023-04-17T06:50:00.214Z,5.57
2023-04-17T06:53:02.937Z,4.72
2023-04-17T06:56:06.164Z,4.90
2023-04-17T06:59:09.901Z,4.97
2023-04-17T07:02:13.007Z,4.45
2023-04-17T07:05:16.197Z,4.38
2023-04-17T07:08:22.680Z,4.82
2023-04-17T07:11:25.670Z,5.32
2023-04-17T07:14:28.465Z,4.47
2023-04-17T07:17:31.700Z,5.10
2023-04-17T07:20:34.366Z,4.57
2023-04-17T07:23:37.637Z,4.38
2023-04-17T07:26:40.780Z,5.10
2023-04-17T07:29:43.752Z,5.47
2023-04-17T07:32:47.145Z,4.97
2023-04-17T07:35:49.878Z,4.68
2023-04-17T07:38:52.635Z,4.50
2023-04-17T07:41:55.308Z,4.63
2023-04-17T07:44:58.081Z,4.60
2023-04-17T07:48:00.743Z,4.25
2023-04-17T07:51:03.553Z,4.20
2023-04-17T07:54:06.274Z,4.50
2023-04-17T07:57:09.089Z,4.75
2023-04-17T08:00:14.505Z,4.65
2023-04-17T08:03:18.292Z,4.37
2023-04-17T08:06:21.331Z,4.15
2023-04-17T08:09:24.050Z,4.35
2023-04-17T08:12:27.159Z,4.78
2023-04-17T08:15:29.964Z,4.07
2023-04-17T08:18:33.069Z,3.42
2023-04-17T08:21:35.732Z,3.78
2023-04-17T08:24:41.067Z,4.15
2023-04-17T08:27:43.925Z,4.00
2023-04-17T08:30:46.767Z,4.68
2023-04-17T08:33:51.294Z,4.40
2023-04-17T08:36:57.792Z,3.90
2023-04-17T08:40:00.840Z,4.35
2023-04-17T08:43:07.594Z,4.15
2023-04-17T08:46:10.855Z,3.95
2023-04-17T08:49:14.033Z,3.85
2023-04-17T08:52:17.275Z,3.88
2023-04-17T08:55:22.835Z,4.43
2023-04-17T08:58:28.695Z,4.65
2023-04-17T09:01:31.757Z,4.18
2023-04-17T09:04:42.677Z,3.90
2023-04-17T09:07:45.900Z,4.32
2023-04-17T09:10:53.146Z,3.88
2023-04-17T09:13:56.050Z,4.00
2023-04-17T09:16:59.116Z,3.13
2023-04-17T09:20:04.316Z,3.50
2023-04-17T09:23:07.105Z,4.00
2023-04-17T09:26:12.468Z,3.35
2023-04-17T09:29:16.167Z,3.42
2023-04-17T09:32:19.433Z,3.42
2023-04-17T09:35:28.253Z,3.30
2023-04-17T09:38:38.629Z,3.30
2023-04-17T09:41:42.161Z,3.72
2023-04-17T09:44:45.492Z,3.92
2023-04-17T09:47:48.799Z,3.75
2023-04-17T09:50:51.816Z,2.63
2023-04-17T09:53:54.811Z,3.40
2023-04-17T09:56:59.183Z,3.38
2023-04-17T10:00:05.364Z,2.88
2023-04-17T10:03:09.527Z,3.17
2023-04-17T10:06:13.010Z,3.30
2023-04-17T10:09:16.130Z,3.63
2023-04-17T10:12:19.823Z,2.92
2023-04-17T10:15:24.084Z,3.08
2023-04-17T10:18:28.322Z,3.00
2023-04-17T10:21:31.525Z,2.90
2023-04-17T10:24:34.359Z,3.60
2023-04-17T10:27:37.710Z,3.33
2023-04-17T10:30:54.977Z,3.88
2023-04-17T10:33:58.471Z,2.88
2023-04-17T10:37:01.866Z,3.25
2023-04-17T10:40:11.054Z,3.00
2023-04-17T10:43:18.414Z,2.65
2023-04-17T10:46:26.521Z,2.30
2023-04-17T10:49:29.481Z,2.72
2023-04-17T10:52:42.092Z,2.85
2023-04-17T10:55:50.965Z,2.38
2023-04-17T10:58:59.723Z,2.13
2023-04-17T11:02:05.105Z,2.85
2023-04-17T11:05:08.281Z,2.47
2023-04-17T11:08:12.158Z,3.65
2023-04-17T11:11:23.556Z,3.78
2023-04-17T11:14:33.491Z,4.38
2023-04-17T11:17:46.154Z,3.83
2023-04-17T11:20:51.827Z,4.05
2023-04-17T11:23:54.699Z,4.93
2023-04-17T11:27:04.151Z,4.90
2023-04-17T11:30:08.438Z,5.03
2023-04-17T11:33:13.228Z,5.43
2023-04-17T11:36:16.751Z,4.50
2023-04-17T11:39:21.710Z,5.72
2023-04-17T11:42:28.221Z,4.97
2023-04-17T11:45:32.912Z,4.05
2023-04-17T11:48:35.973Z,4.30
2023-04-17T11:51:38.800Z,4.68
2023-04-17T11:54:42.020Z,5.10
2023-04-17T11:57:44.864Z,4.05
2023-04-17T12:01:05.015Z,4.60
2023-04-17T12:04:20.503Z,4.25
2023-04-17T12:07:26.886Z,4.90
2023-04-17T12:10:43.403Z,4.15
2023-04-17T12:13:46.549Z,4.43
2023-04-17T12:16:50.896Z,4.32
2023-04-17T12:19:54.098Z,4.40
2023-04-17T12:22:57.120Z,5.28
2023-04-17T12:25:59.821Z,4.65
2023-04-17T12:29:02.881Z,4.30
2023-04-17T12:32:06.113Z,4.82
2023-04-17T12:35:09.365Z,4.70
2023-04-17T12:38:12.096Z,4.13
2023-04-17T12:41:14.913Z,4.90
2023-04-17T12:44:17.796Z,4.63
2023-04-17T12:47:20.771Z,4.30
2023-04-17T12:50:23.803Z,4.13
2023-04-17T12:53:26.614Z,4.18
2023-04-17T12:56:29.590Z,4.00
2023-04-17T12:59:32.570Z,3.95
2023-04-17T13:02:36.454Z,3.50
2023-04-17T13:05:39.858Z,4.18
2023-04-17T13:08:42.819Z,3.88
2023-04-17T13:11:45.663Z,3.80
2023-04-17T13:14:48.550Z,3.88
2023-04-17T13:17:51.271Z,4.03
2023-04-17T13:20:54.084Z,4.20
2023-04-17T13:23:56.889Z,3.78
2023-04-17T13:26:59.848Z,4.75
2023-04-17T13:30:02.741Z,3.95
2023-04-17T13:33:06.050Z,3.88
2023-04-17T13:36:08.791Z,3.88
2023-04-17T13:39:12.031Z,4.40
2023-04-17T13:42:19.611Z,4.15
2023-04-17T13:45:22.654Z,4.10
2023-04-17T13:48:25.540Z,4.30
2023-04-17T13:51:28.662Z,4.00
2023-04-17T13:54:31.800Z,4.00
2023-04-17T13:57:36.362Z,4.43
2023-04-17T14:00:39.109Z,3.88
2023-04-17T14:03:44.596Z,4.03
2023-04-17T14:09:53.462Z,4.03
2023-04-17T14:12:56.321Z,3.72
2023-04-17T14:15:59.299Z,4.18
2023-04-17T14:19:12.579Z,4.03
2023-04-17T14:22:17.077Z,3.70
2023-04-17T14:25:19.970Z,4.28
2023-04-17T14:28:24.104Z,4.45
2023-04-17T14:31:26.985Z,3.65
2023-04-17T14:34:30.150Z,3.53
2023-04-17T14:37:34.110Z,4.10
2023-04-17T14:40:37.027Z,3.53
2023-04-17T14:43:39.872Z,3.60
2023-04-17T14:46:42.796Z,3.28
2023-04-17T14:49:45.737Z,3.58
2023-04-17T14:52:48.782Z,3.83
2023-04-17T14:55:52.082Z,6.97
2023-04-17T14:58:55.110Z,4.07
2023-04-17T15:01:58.008Z,3.88
2023-04-17T15:05:01.211Z,3.35
2023-04-17T15:08:04.244Z,3.83
2023-04-17T15:11:07.542Z,3.88
2023-04-17T15:14:11.327Z,3.75
2023-04-17T15:17:14.190Z,3.38
2023-04-17T15:20:16.974Z,4.03
2023-04-17T15:23:19.852Z,3.22
2023-04-17T15:26:23.202Z,3.65
2023-04-17T15:29:25.960Z,3.30
2023-04-17T15:32:28.858Z,3.63
2023-04-17T15:35:31.869Z,2.80
2023-04-17T15:38:34.919Z,2.80
2023-04-17T15:41:40.440Z,2.67
2023-04-17T15:44:43.340Z,2.65
2023-04-17T15:47:46.291Z,2.75
2023-04-17T15:50:49.226Z,2.13
2023-04-17T15:53:52.181Z,3.15
2023-04-17T15:56:56.507Z,2.50
2023-04-17T15:59:59.642Z,2.28
2023-04-17T16:03:02.684Z,3.17
2023-04-17T16:06:06.213Z,2.40
2023-04-17T16:09:10.203Z,2.40
2023-04-17T16:12:13.316Z,6.07
2023-04-17T16:15:17.547Z,2.40
2023-04-17T16:18:20.825Z,2.13
2023-04-17T16:21:23.585Z,1.98
2023-04-17T16:24:26.913Z,2.08
2023-04-17T16:27:30.885Z,1.92
2023-04-17T16:30:33.930Z,2.95
2023-04-17T16:33:36.819Z,1.75
2023-04-17T16:36:39.557Z,1.80
2023-04-17T16:39:42.333Z,1.65
2023-04-17T16:43:50.869Z,1.38
2023-04-17T16:47:09.940Z,1.20
2023-04-17T16:50:15.746Z,1.55
2023-04-17T16:53:18.653Z,1.30
2023-04-17T16:56:21.890Z,1.27
2023-04-17T16:59:24.808Z,1.77
2023-04-17T17:02:27.906Z,1.80
2023-04-17T17:05:30.749Z,12.90
2023-04-17T17:08:33.650Z,3.65
2023-04-17T17:11:36.652Z,13.00
2023-04-17T17:14:39.524Z,6.15
2023-04-17T17:17:43.451Z,14.20
2023-04-17T17:20:54.510Z,16.33
2023-04-17T17:23:57.490Z,3.97
2023-04-17T17:27:00.333Z,2.50
2023-04-17T17:30:04.462Z,6.53
2023-04-17T17:33:07.324Z,3.05
2023-04-17T17:36:12.074Z,12.27
2023-04-17T17:39:15.090Z,4.22
2023-04-17T17:42:18.248Z,2.97
2023-04-17T17:45:20.987Z,2.30
2023-04-17T17:48:23.913Z,2.38
2023-04-17T17:51:27.284Z,3.63
2023-04-17T17:54:30.087Z,3.17
2023-04-17T17:57:38.691Z,3.10
2023-04-17T18:00:51.305Z,2.75
2023-04-17T18:03:54.361Z,2.83
2023-04-17T18:06:57.521Z,4.57
2023-04-17T18:10:00.621Z,2.38
2023-04-17T18:13:03.946Z,3.03
2023-04-17T18:16:07.292Z,1.75
2023-04-17T18:19:10.324Z,4.07
2023-04-17T18:22:13.101Z,1.73
2023-04-17T18:25:16.313Z,1.40
2023-04-17T18:28:19.184Z,1.45
2023-04-17T18:31:23.402Z,1.60
2023-04-17T18:34:26.270Z,3.50
2023-04-17T18:37:29.684Z,1.77
2023-04-17T18:40:32.414Z,1.70
2023-04-17T18:43:35.408Z,1.63
2023-04-17T18:46:38.265Z,1.60
2023-04-17T18:49:41.201Z,4.28
2023-04-17T18:52:49.413Z,6.00
2023-04-17T18:55:56.054Z,2.10
2023-04-17T18:58:58.989Z,1.30
2023-04-17T19:02:01.944Z,1.90
2023-04-17T19:05:05.199Z,1.60
2023-04-17T19:08:08.057Z,1.60
2023-04-17T19:11:11.467Z,6.55
2023-04-17T19:14:14.454Z,2.03
2023-04-17T19:17:17.544Z,1.95
2023-04-17T19:20:21.816Z,1.60
2023-04-17T19:23:24.611Z,1.75
2023-04-17T19:26:29.933Z,1.80
2023-04-17T19:29:32.829Z,1.80
2023-04-17T19:32:35.864Z,1.75
2023-04-17T19:35:39.141Z,1.60
2023-04-17T19:38:42.101Z,1.45
2023-04-17T19:41:52.289Z,1.40
2023-04-17T19:44:55.223Z,1.83
2023-04-17T19:47:58.152Z,3.72
2023-04-17T19:51:03.481Z,1.50
2023-04-17T19:54:06.280Z,1.48
2023-04-17T19:57:09.219Z,1.70
2023-04-17T20:00:12.998Z,1.48
2023-04-17T20:03:15.871Z,1.27
2023-04-17T20:06:19.754Z,1.38
2023-04-17T20:09:22.606Z,3.92
2023-04-17T20:12:25.852Z,1.35
2023-04-17T20:15:29.584Z,1.23
2023-04-17T20:18:34.092Z,1.10
2023-04-17T20:21:37.209Z,1.35
2023-04-17T20:24:40.091Z,1.25
2023-04-17T20:27:42.847Z,1.50
2023-04-17T20:30:45.620Z,1.00
2023-04-17T20:33:48.531Z,1.77
2023-04-17T20:36:51.715Z,3.75
2023-04-17T20:39:54.473Z,1.75
2023-04-17T20:42:57.357Z,1.50
2023-04-17T20:46:00.404Z,0.80
2023-04-17T20:49:03.323Z,1.30
2023-04-17T20:52:06.050Z,1.23
2023-04-17T20:55:09.570Z,0.90
2023-04-17T20:58:12.281Z,1.40
2023-04-17T21:01:16.263Z,1.20
2023-04-17T21:04:19.180Z,1.30
2023-04-17T21:07:21.904Z,1.52
2023-04-17T21:10:24.629Z,1.27
2023-04-17T21:13:27.399Z,1.30
2023-04-17T21:16:31.552Z,1.02
2023-04-17T21:19:40.599Z,0.98
2023-04-17T21:22:43.391Z,1.00
2023-04-17T21:25:46.073Z,1.15
2023-04-17T21:28:49.061Z,1.00
2023-04-17T21:31:51.916Z,0.82
2023-04-17T21:34:54.621Z,0.93
2023-04-17T21:37:57.317Z,1.10
2023-04-17T21:41:00.105Z,1.00
2023-04-17T21:44:04.058Z,0.80
2023-04-17T21:47:06.744Z,0.80
2023-04-17T21:50:09.935Z,0.70
2023-04-17T21:53:12.711Z,0.60
2023-04-17T21:56:15.726Z,0.90
2023-04-17T21:59:18.520Z,0.98
2023-04-17T22:02:21.298Z,1.02
2023-04-17T22:05:24.040Z,0.40
2023-04-17T22:08:26.705Z,0.80
2023-04-17T22:11:29.434Z,0.60
2023-04-17T22:14:32.246Z,0.93
2023-04-17T22:17:35.299Z,1.00
2023-04-17T22:20:38.110Z,1.05
2023-04-17T22:23:40.761Z,1.10
2023-04-17T22:26:43.504Z,1.10
2023-04-17T22:29:46.314Z,0.80
2023-04-17T22:32:49.186Z,0.80
2023-04-17T22:35:52.097Z,1.05
2023-04-17T22:38:54.747Z,1.02
2023-04-17T22:41:58.234Z,1.10
2023-04-17T22:45:03.247Z,1.40
2023-04-17T22:48:06.620Z,0.93
2023-04-17T22:51:10.052Z,0.90
2023-04-17T22:54:22.168Z,0.80
2023-04-17T22:57:26.424Z,0.93
2023-04-17T23:00:30.474Z,0.88
2023-04-17T23:03:34.566Z,1.25
2023-04-17T23:06:37.318Z,0.73
2023-04-17T23:09:40.148Z,0.63
2023-04-17T23:12:43.005Z,0.65
2023-04-17T23:15:45.734Z,0.68
2023-04-17T23:18:48.535Z,0.80
2023-04-17T23:21:51.151Z,1.00
2023-04-17T23:24:53.819Z,0.60
2023-04-17T23:27:56.594Z,0.60
2023-04-17T23:30:59.465Z,0.60
2023-04-17T23:34:02.368Z,0.70
2023-04-17T23:37:05.125Z,0.60
2023-04-17T23:40:09.107Z,0.75
2023-04-17T23:43:11.740Z,0.70
2023-04-17T23:46:14.505Z,0.70
2023-04-17T23:49:17.103Z,0.55
2023-04-17T23:52:19.921Z,0.52
2023-04-17T23:55:23.458Z,0.70
2023-04-17T23:58:26.115Z,0.43
